createdAt,value
2023-03-05T00:01:09.078Z,102424.97
2023-03-05T00:03:35.692Z,102417.34
2023-03-05T00:06:02.235Z,102419.97
2023-03-05T00:08:29.515Z,102419.63
2023-03-05T00:10:57.641Z,102411.72
2023-03-05T00:13:24.045Z,102409.34
2023-03-05T00:15:50.429Z,102405.91
2023-03-05T00:18:17.033Z,102411.19
2023-03-05T00:20:43.389Z,102393.78
2023-03-05T00:23:09.780Z,102400.84
2023-03-05T00:25:36.730Z,102396.63
2023-03-05T00:28:04.186Z,102389.53
2023-03-05T00:30:32.275Z,102394.81
2023-03-05T00:32:59.084Z,102380.03
2023-03-05T00:35:25.544Z,102390.03
2023-03-05T00:37:52.062Z,102387.63
2023-03-05T00:40:19.039Z,102379.41
2023-03-05T00:42:45.575Z,102383.53
2023-03-05T00:45:12.188Z,102381.84
2023-03-05T00:47:38.551Z,102383.56
2023-03-05T00:50:06.570Z,102382.44
2023-03-05T00:52:33.477Z,102379.50
2023-03-05T00:54:59.810Z,102383.16
2023-03-05T00:57:26.114Z,102387.84
2023-03-05T00:59:52.406Z,102379.94
2023-03-05T01:02:18.903Z,102371.50
2023-03-05T01:04:47.142Z,102373.09
2023-03-05T01:07:13.572Z,102367.84
2023-03-05T01:09:40.289Z,102364.66
2023-03-05T01:12:06.988Z,102364.06
2023-03-05T01:14:34.575Z,102360.63
2023-03-05T01:17:01.124Z,102369.81
2023-03-05T01:19:27.503Z,102354.03
2023-03-05T01:21:54.955Z,102350.38
2023-03-05T01:24:22.071Z,102348.78
2023-03-05T01:26:49.294Z,102340.88
2023-03-05T01:29:15.679Z,102340.63
2023-03-05T01:31:42.058Z,102339.34
2023-03-05T01:34:08.622Z,102335.94
2023-03-05T01:36:35.017Z,102340.19
2023-03-05T01:39:02.376Z,102335.13
2023-03-05T01:41:32.689Z,102328.03
2023-03-05T01:43:59.395Z,102320.94
2023-03-05T01:46:30.396Z,102320.38
2023-03-05T01:49:10.838Z,102309.88
2023-03-05T01:52:11.379Z,102306.69
2023-03-05T01:54:44.717Z,102305.09
2023-03-05T01:57:15.804Z,102296.63
2023-03-05T01:59:45.331Z,102299.25
2023-03-05T02:02:13.326Z,102293.44
2023-03-05T02:04:46.556Z,102290.81
2023-03-05T02:07:13.858Z,102291.84
2023-03-05T02:09:41.207Z,102284.19
2023-03-05T02:12:10.063Z,102278.13
2023-03-05T02:14:39.714Z,102275.50
2023-03-05T02:17:06.218Z,102278.91
2023-03-05T02:19:54.498Z,102270.03
2023-03-05T02:22:23.318Z,102273.44
2023-03-05T02:24:50.511Z,102260.28
2023-03-05T02:27:17.533Z,102261.09
2023-03-05T02:29:46.206Z,102250.56
2023-03-05T02:32:13.876Z,102254.00
2023-03-05T02:34:40.441Z,102251.81
2023-03-05T02:37:09.021Z,102251.03
2023-03-05T02:39:35.412Z,102243.63
2023-03-05T02:42:01.798Z,102242.00
2023-03-05T02:44:28.145Z,102247.50
2023-03-05T02:46:54.490Z,102233.31
2023-03-05T02:49:21.031Z,102229.69
2023-03-05T02:51:47.343Z,102226.00
2023-03-05T02:54:13.707Z,102230.22
2023-03-05T02:56:40.171Z,102226.56
2023-03-05T02:59:07.593Z,102223.13
2023-03-05T03:01:34.050Z,102214.22
2023-03-05T03:04:00.538Z,102216.84
2023-03-05T03:06:26.839Z,102208.16
2023-03-05T03:08:53.146Z,102204.47
2023-03-05T03:11:20.782Z,102206.91
2023-03-05T03:13:47.392Z,102196.13
2023-03-05T03:16:15.796Z,102196.38
2023-03-05T03:18:42.235Z,102197.38
2023-03-05T03:21:08.622Z,102188.72
2023-03-05T03:23:35.240Z,102191.59
2023-03-05T03:26:01.663Z,102187.13
2023-03-05T03:28:28.122Z,102177.88
2023-03-05T03:30:54.497Z,102181.31
2023-03-05T03:33:20.918Z,102182.34
2023-03-05T03:35:47.339Z,102182.34
2023-03-05T03:38:13.885Z,102182.34
2023-03-05T03:40:41.708Z,102173.09
2023-03-05T03:43:08.181Z,102172.28
2023-03-05T03:45:34.506Z,102169.91
2023-03-05T03:48:00.921Z,102165.44
2023-03-05T03:50:27.294Z,102154.94
2023-03-05T03:52:53.688Z,102154.94
2023-03-05T03:55:20.014Z,102146.25
2023-03-05T03:57:46.396Z,102150.47
2023-03-05T04:00:13.162Z,102153.34
2023-03-05T04:02:39.969Z,102147.03
2023-03-05T04:05:06.911Z,102149.66
2023-03-05T04:07:33.242Z,102143.63
2023-03-05T04:09:59.563Z,102144.97
2023-03-05T04:12:25.914Z,102143.91
2023-03-05T04:14:52.240Z,102144.97
2023-03-05T04:17:18.678Z,102135.47
2023-03-05T04:19:45.067Z,102140.75
2023-03-05T04:22:15.925Z,102135.47
2023-03-05T04:24:43.475Z,102133.66
2023-03-05T04:27:10.213Z,102132.06
2023-03-05T04:29:36.691Z,102129.66
2023-03-05T04:32:03.408Z,102128.06
2023-03-05T04:34:29.748Z,102129.09
2023-03-05T04:36:56.065Z,102120.66
2023-03-05T04:39:22.471Z,102114.59
2023-03-05T04:41:48.817Z,102114.59
2023-03-05T04:44:17.618Z,102119.88
2023-03-05T04:46:44.191Z,102117.47
2023-03-05T04:49:10.500Z,102106.97
2023-03-05T04:51:36.802Z,102098.25
2023-03-05T04:54:03.293Z,102106.13
2023-03-05T04:56:29.606Z,102100.88
2023-03-05T04:58:55.928Z,102098.50
2023-03-05T05:01:22.358Z,102095.31
2023-03-05T05:03:48.672Z,102100.59
2023-03-05T05:06:14.997Z,102097.38
2023-03-05T05:08:41.455Z,102096.59
2023-03-05T05:11:08.387Z,102104.72
2023-03-05T05:13:35.066Z,102092.63
2023-03-05T05:16:01.694Z,102088.41
2023-03-05T05:18:28.091Z,102089.97
2023-03-05T05:20:55.569Z,102081.59
2023-03-05T05:23:21.904Z,102081.06
2023-03-05T05:25:59.518Z,102075.25
2023-03-05T05:28:26.023Z,102081.31
2023-03-05T05:30:52.734Z,102073.66
2023-03-05T05:33:19.196Z,102078.09
2023-03-05T05:35:45.588Z,102072.53
2023-03-05T05:38:11.893Z,102072.78
2023-03-05T05:40:38.240Z,102068.78
2023-03-05T05:43:05.045Z,102066.88
2023-03-05T05:45:31.588Z,102069.19
2023-03-05T05:47:58.155Z,102067.56
2023-03-05T05:50:24.563Z,102064.94
2023-03-05T05:52:51.896Z,102062.31
2023-03-05T05:55:18.232Z,102060.72
2023-03-05T05:57:44.558Z,102058.91
2023-03-05T06:00:13.526Z,102054.69
2023-03-05T06:02:41.646Z,102053.44
2023-03-05T06:05:10.799Z,102051.34
2023-03-05T06:07:37.234Z,102053.25
2023-03-05T06:10:04.449Z,102059.31
2023-03-05T06:12:30.778Z,102057.47
2023-03-05T06:14:57.434Z,102057.47
2023-03-05T06:17:30.402Z,102049.59
2023-03-05T06:19:58.210Z,102043.53
2023-03-05T06:22:24.539Z,102055.66
2023-03-05T06:24:50.936Z,102055.41
2023-03-05T06:27:17.326Z,102049.13
2023-03-05T06:29:43.639Z,102047.28
2023-03-05T06:32:10.005Z,102051.50
2023-03-05T06:34:36.403Z,102047.84
2023-03-05T06:37:06.034Z,102050.47
2023-03-05T06:39:35.000Z,102052.84
2023-03-05T06:42:01.379Z,102046.34
2023-03-05T06:44:27.754Z,102049.75
2023-03-05T06:46:54.205Z,102047.94
2023-03-05T06:49:20.667Z,102049.50
2023-03-05T06:51:47.158Z,102049.50
2023-03-05T06:54:15.499Z,102049.50
2023-03-05T06:56:44.877Z,102048.47
2023-03-05T06:59:13.175Z,102045.84
2023-03-05T07:01:39.604Z,102051.69
2023-03-05T07:04:06.780Z,102040.66
2023-03-05T07:06:35.975Z,102040.19
2023-03-05T07:09:03.339Z,102047.59
2023-03-05T07:11:30.185Z,102048.47
2023-03-05T07:13:56.509Z,102049.13
2023-03-05T07:16:25.860Z,102040.81
2023-03-05T07:18:52.498Z,102033.53
2023-03-05T07:21:21.693Z,102038.84
2023-03-05T07:23:52.308Z,102042.84
2023-03-05T07:26:18.867Z,102035.03
2023-03-05T07:28:45.225Z,102036.69
2023-03-05T07:31:19.010Z,102043.09
2023-03-05T07:33:50.520Z,102036.69
2023-03-05T07:36:17.818Z,102036.78
2023-03-05T07:38:44.273Z,102038.09
2023-03-05T07:41:13.641Z,102039.88
2023-03-05T07:43:40.473Z,102037.50
2023-03-05T07:46:09.124Z,102042.19
2023-03-05T07:48:36.048Z,102031.13
2023-03-05T07:51:09.079Z,102028.78
2023-03-05T07:53:35.720Z,102030.91
2023-03-05T07:56:02.255Z,102033.88
2023-03-05T07:58:28.631Z,102033.94
2023-03-05T08:00:55.013Z,102030.53
2023-03-05T08:03:21.392Z,102023.81
2023-03-05T08:05:47.719Z,102013.38
2023-03-05T08:08:14.090Z,102018.44
2023-03-05T08:10:40.451Z,102006.31
2023-03-05T08:13:06.865Z,102014.75
2023-03-05T08:15:33.424Z,102014.75
2023-03-05T08:18:00.245Z,102015.81
2023-03-05T08:20:26.863Z,102005.81
2023-03-05T08:22:53.205Z,102015.88
2023-03-05T08:25:19.616Z,102005.88
2023-03-05T08:27:46.891Z,102012.75
2023-03-05T08:30:16.281Z,102001.00
2023-03-05T08:32:43.722Z,102001.66
2023-03-05T08:35:10.390Z,102005.75
2023-03-05T08:37:37.017Z,101999.53
2023-03-05T08:40:05.089Z,101994.28
2023-03-05T08:42:31.476Z,101989.56
2023-03-05T08:44:57.783Z,101980.09
2023-03-05T08:47:26.533Z,101996.44
2023-03-05T08:49:55.488Z,101989.13
2023-03-05T08:52:22.688Z,101976.50
2023-03-05T08:54:49.174Z,101973.09
2023-03-05T08:57:15.573Z,101974.94
2023-03-05T08:59:41.915Z,101967.53
2023-03-05T09:02:10.886Z,101964.94
2023-03-05T09:04:37.974Z,101965.00
2023-03-05T09:07:04.808Z,101959.19
2023-03-05T09:09:32.803Z,101960.00
2023-03-05T09:12:00.582Z,101964.75
2023-03-05T09:14:28.316Z,101960.25
2023-03-05T09:16:55.711Z,101971.34
2023-03-05T09:19:22.208Z,101972.94
2023-03-05T09:21:48.641Z,101963.41
2023-03-05T09:24:15.013Z,101959.72
2023-03-05T09:26:42.188Z,101958.94
2023-03-05T09:29:09.071Z,101958.91
2023-03-05T09:31:36.520Z,101958.69
2023-03-05T09:34:04.142Z,101954.97
2023-03-05T09:36:31.492Z,101959.19
2023-03-05T09:38:58.529Z,101951.22
2023-03-05T09:41:30.187Z,101956.53
2023-03-05T09:44:19.988Z,101944.66
2023-03-05T09:46:55.536Z,101949.41
2023-03-05T09:49:41.960Z,101955.25
2023-03-05T09:52:51.556Z,101957.19
2023-03-05T09:55:34.331Z,101952.91
2023-03-05T09:58:10.294Z,101947.63
2023-03-05T10:00:41.415Z,101947.44
2023-03-05T10:03:30.129Z,101947.19
2023-03-05T10:06:17.365Z,101940.84
2023-03-05T10:08:54.489Z,101929.75
2023-03-05T10:11:45.269Z,101931.88
2023-03-05T10:14:18.702Z,101931.88
2023-03-05T10:17:05.179Z,101931.09
2023-03-05T10:19:49.669Z,101919.75
2023-03-05T10:22:20.971Z,101918.69
2023-03-05T10:25:32.199Z,101922.41
2023-03-05T10:28:08.133Z,101918.97
2023-03-05T10:30:46.602Z,101917.38
2023-03-05T10:33:34.756Z,101916.31
2023-03-05T10:36:11.153Z,101904.41
2023-03-05T10:38:46.422Z,101905.22
2023-03-05T10:41:41.178Z,101901.00
2023-03-05T10:44:17.898Z,101901.25
2023-03-05T10:46:45.887Z,101903.91
2023-03-05T10:49:34.999Z,101889.63
2023-03-05T10:52:09.663Z,101882.19
2023-03-05T10:54:37.508Z,101887.22
2023-03-05T10:57:25.327Z,101889.06
2023-03-05T11:00:16.458Z,101881.13
2023-03-05T11:02:58.619Z,101873.69
2023-03-05T11:05:46.940Z,101866.81
2023-03-05T11:08:34.089Z,101864.91
2023-03-05T11:11:18.875Z,101863.56
2023-03-05T11:13:48.195Z,101855.59
2023-03-05T11:16:21.809Z,101854.50
2023-03-05T11:18:48.826Z,101848.94
2023-03-05T11:21:27.639Z,101845.81
2023-03-05T11:24:13.856Z,101838.38
2023-03-05T11:26:47.729Z,101833.81
2023-03-05T11:29:29.944Z,101830.28
2023-03-05T11:31:56.690Z,101825.16
2023-03-05T11:34:31.230Z,101822.47
2023-03-05T11:36:57.630Z,101814.19
2023-03-05T11:39:30.296Z,101805.13
2023-03-05T11:42:01.249Z,101809.06
2023-03-05T11:44:45.593Z,101806.63
2023-03-05T11:47:37.665Z,101805.75
2023-03-05T11:50:15.959Z,101791.19
2023-03-05T11:52:53.047Z,101793.88
2023-03-05T11:55:23.711Z,101788.72
2023-03-05T11:58:14.834Z,101786.75
2023-03-05T12:00:44.791Z,101783.72
2023-03-05T12:03:17.819Z,101783.44
2023-03-05T12:05:49.318Z,101777.88
2023-03-05T12:08:25.515Z,101767.88
2023-03-05T12:10:52.450Z,101764.38
2023-03-05T12:13:32.538Z,101764.69
2023-03-05T12:16:12.418Z,101763.06
2023-03-05T12:18:50.826Z,101744.06
2023-03-05T12:21:28.893Z,101747.47
2023-03-05T12:24:03.613Z,101741.47
2023-03-05T12:27:04.283Z,101739.41
2023-03-05T12:29:46.178Z,101734.66
2023-03-05T12:32:25.445Z,101734.16
2023-03-05T12:35:04.174Z,101725.97
2023-03-05T12:37:31.046Z,101717.53
2023-03-05T12:39:58.748Z,101719.94
2023-03-05T12:42:28.053Z,101709.13
2023-03-05T12:45:34.386Z,101707.31
2023-03-05T12:48:00.803Z,101700.53
2023-03-05T12:50:27.187Z,101702.75
2023-03-05T12:53:00.194Z,101699.56
2023-03-05T12:55:48.671Z,101698.06
2023-03-05T12:58:33.813Z,101690.41
2023-03-05T13:01:16.441Z,101681.72
2023-03-05T13:03:53.213Z,101684.56
2023-03-05T13:06:32.715Z,101675.41
2023-03-05T13:09:23.184Z,101665.63
2023-03-05T13:11:52.474Z,101661.66
2023-03-05T13:14:37.085Z,101663.81
2023-03-05T13:17:30.580Z,101652.38
2023-03-05T13:19:58.201Z,101654.19
2023-03-05T13:22:25.253Z,101643.59
2023-03-05T13:25:24.061Z,101647.31
2023-03-05T13:27:50.420Z,101639.84
2023-03-05T13:30:27.319Z,101635.06
2023-03-05T13:33:00.277Z,101631.97
2023-03-05T13:35:26.711Z,101623.00
2023-03-05T13:37:53.133Z,101625.75
2023-03-05T13:40:27.413Z,101624.91
2023-03-05T13:42:54.069Z,101622.50
2023-03-05T13:45:24.860Z,101609.25
2023-03-05T13:47:56.236Z,101614.56
2023-03-05T13:50:35.225Z,101610.28
2023-03-05T13:53:18.253Z,101607.63
2023-03-05T13:55:46.263Z,101609.06
2023-03-05T13:58:53.499Z,101598.41
2023-03-05T14:01:28.066Z,101600.84
2023-03-05T14:03:57.810Z,101592.94
2023-03-05T14:06:28.191Z,101598.53
2023-03-05T14:09:02.702Z,101591.72
2023-03-05T14:11:29.654Z,101586.97
2023-03-05T14:14:16.690Z,101584.81
2023-03-05T14:16:43.257Z,101577.16
2023-03-05T14:19:34.817Z,101572.09
2023-03-05T14:22:01.935Z,101573.38
2023-03-05T14:24:31.153Z,101571.09
2023-03-05T14:27:00.889Z,101567.34
2023-03-05T14:29:28.672Z,101558.34
2023-03-05T14:31:59.079Z,101555.41
2023-03-05T14:34:42.006Z,101550.19
2023-03-05T14:37:21.994Z,101550.56
2023-03-05T14:39:54.613Z,101548.63
2023-03-05T14:42:50.403Z,101541.94
2023-03-05T14:45:20.337Z,101536.75
2023-03-05T14:47:47.604Z,101537.28
2023-03-05T14:50:23.020Z,101537.69
2023-03-05T14:52:53.046Z,101529.59
2023-03-05T14:55:23.215Z,101531.28
2023-03-05T14:57:51.517Z,101523.66
2023-03-05T15:00:24.023Z,101527.34
2023-03-05T15:02:50.822Z,101523.19
2023-03-05T15:05:18.579Z,101519.50
2023-03-05T15:07:45.390Z,101520.28
2023-03-05T15:10:18.722Z,101518.47
2023-03-05T15:12:45.915Z,101513.44
2023-03-05T15:15:15.418Z,101501.81
2023-03-05T15:17:44.097Z,101507.94
2023-03-05T15:20:19.718Z,101503.78
2023-03-05T15:22:46.285Z,101499.56
2023-03-05T15:25:12.778Z,101491.38
2023-03-05T15:27:39.314Z,101489.84
2023-03-05T15:30:07.546Z,101493.06
2023-03-05T15:32:34.108Z,101484.34
2023-03-05T15:35:01.070Z,101490.47
2023-03-05T15:37:31.170Z,101479.91
2023-03-05T15:39:57.781Z,101475.72
2023-03-05T15:42:24.132Z,101473.63
2023-03-05T15:44:50.498Z,101472.59
2023-03-05T15:47:16.823Z,101466.56
2023-03-05T15:49:43.155Z,101465.28
2023-03-05T15:52:09.580Z,101461.59
2023-03-05T15:54:36.920Z,101459.78
2023-03-05T15:57:09.869Z,101467.75
2023-03-05T15:59:36.858Z,101457.00
2023-03-05T16:02:03.631Z,101458.91
2023-03-05T16:04:30.123Z,101450.75
2023-03-05T16:07:02.836Z,101447.38
2023-03-05T16:09:37.217Z,101446.91
2023-03-05T16:12:08.694Z,101450.34
2023-03-05T16:14:35.142Z,101441.69
2023-03-05T16:17:03.429Z,101445.38
2023-03-05T16:19:30.780Z,101439.06
2023-03-05T16:21:57.105Z,101435.13
2023-03-05T16:24:23.426Z,101427.25
2023-03-05T16:26:49.745Z,101424.63
2023-03-05T16:29:16.080Z,101435.75
2023-03-05T16:31:43.256Z,101428.88
2023-03-05T16:34:10.097Z,101423.38
2023-03-05T16:36:36.439Z,101423.38
2023-03-05T16:39:04.295Z,101424.97
2023-03-05T16:41:30.793Z,101419.94
2023-03-05T16:43:59.701Z,101413.09
2023-03-05T16:46:28.838Z,101410.19
2023-03-05T16:48:55.393Z,101411.75
2023-03-05T16:51:22.669Z,101400.69
2023-03-05T16:53:53.566Z,101402.03
2023-03-05T16:56:20.672Z,101398.09
2023-03-05T16:58:47.191Z,101395.19
2023-03-05T17:01:17.140Z,101399.19
2023-03-05T17:03:44.778Z,101398.41
2023-03-05T17:06:16.694Z,101398.66
2023-03-05T17:08:44.402Z,101395.00
2023-03-05T17:11:12.525Z,101398.44
2023-03-05T17:13:39.540Z,101388.94
2023-03-05T17:16:07.645Z,101390.28
2023-03-05T17:18:34.490Z,101387.13
2023-03-05T17:21:02.410Z,101392.69
2023-03-05T17:23:28.783Z,101379.22
2023-03-05T17:25:55.560Z,101385.31
2023-03-05T17:28:21.991Z,101380.31
2023-03-05T17:30:48.414Z,101376.63
2023-03-05T17:33:14.799Z,101377.69
2023-03-05T17:35:46.971Z,101376.38
2023-03-05T17:38:14.319Z,101376.16
2023-03-05T17:40:40.758Z,101373.25
2023-03-05T17:43:07.417Z,101373.03
2023-03-05T17:45:35.283Z,101382.25
2023-03-05T17:48:01.924Z,101375.13
2023-03-05T17:50:28.537Z,101378.31
2023-03-05T17:52:55.220Z,101374.63
2023-03-05T17:55:23.966Z,101376.75
2023-03-05T17:57:50.998Z,101375.19
2023-03-05T18:00:23.006Z,101380.19
2023-03-05T18:02:50.736Z,101378.88
2023-03-05T18:05:18.976Z,101377.84
2023-03-05T18:07:45.298Z,101375.47
2023-03-05T18:10:13.173Z,101378.66
2023-03-05T18:12:40.280Z,101382.34
2023-03-05T18:15:10.235Z,101369.41
2023-03-05T18:17:36.622Z,101366.28
2023-03-05T18:20:04.365Z,101363.91
2023-03-05T18:22:31.263Z,101368.63
2023-03-05T18:24:58.047Z,101369.97
2023-03-05T18:27:24.899Z,101359.97
2023-03-05T18:29:53.943Z,101368.91
2023-03-05T18:32:22.170Z,101368.91
2023-03-05T18:34:50.576Z,101369.47
2023-03-05T18:37:17.291Z,101363.66
2023-03-05T18:39:43.632Z,101364.22
2023-03-05T18:42:14.046Z,101358.41
2023-03-05T18:44:41.121Z,101364.22
2023-03-05T18:47:07.441Z,101356.31
2023-03-05T18:49:33.942Z,101356.81
2023-03-05T18:52:00.273Z,101352.09
2023-03-05T18:54:26.635Z,101349.97
2023-03-05T18:56:55.594Z,101343.41
2023-03-05T18:59:22.105Z,101343.44
2023-03-05T19:01:48.430Z,101340.25
2023-03-05T19:04:14.880Z,101337.88
2023-03-05T19:06:41.345Z,101334.75
2023-03-05T19:09:17.018Z,101328.69
2023-03-05T19:11:43.330Z,101327.63
2023-03-05T19:14:09.643Z,101328.41
2023-03-05T19:16:43.281Z,101326.84
2023-03-05T19:19:25.303Z,101322.63
2023-03-05T19:21:54.108Z,101319.22
2023-03-05T19:24:22.651Z,101316.81
2023-03-05T19:26:49.985Z,101318.94
2023-03-05T19:29:16.422Z,101310.78
2023-03-05T19:31:42.792Z,101308.94
2023-03-05T19:34:09.150Z,101303.16
2023-03-05T19:36:35.683Z,101295.81
2023-03-05T19:39:06.426Z,101298.94
2023-03-05T19:41:32.974Z,101289.47
2023-03-05T19:43:59.476Z,101290.25
2023-03-05T19:46:26.178Z,101288.69
2023-03-05T19:48:52.640Z,101288.94
2023-03-05T19:51:21.713Z,101278.94
2023-03-05T19:53:48.318Z,101276.59
2023-03-05T19:56:16.295Z,101286.56
2023-03-05T19:58:46.241Z,101278.94
2023-03-05T20:01:14.562Z,101272.38
2023-03-05T20:03:42.907Z,101274.22
2023-03-05T20:06:09.309Z,101270.00
2023-03-05T20:08:35.649Z,101271.34
2023-03-05T20:11:02.414Z,101270.56
2023-03-05T20:13:29.309Z,101272.13
2023-03-05T20:15:55.814Z,101268.97
2023-03-05T20:18:22.519Z,101270.81
2023-03-05T20:20:57.285Z,101264.75
2023-03-05T20:23:24.463Z,101266.06
2023-03-05T20:25:51.906Z,101266.59
2023-03-05T20:28:27.015Z,101262.66
2023-03-05T20:30:57.972Z,101263.72
2023-03-05T20:33:25.590Z,101259.50
2023-03-05T20:35:54.128Z,101257.91
2023-03-05T20:38:22.271Z,101262.66
2023-03-05T20:40:50.506Z,101255.03
2023-03-05T20:43:17.556Z,101255.31
2023-03-05T20:45:43.912Z,101247.66
2023-03-05T20:48:10.280Z,101241.88
2023-03-05T20:50:36.779Z,101243.19
2023-03-05T20:53:04.031Z,101243.44
2023-03-05T20:55:30.973Z,101243.72
2023-03-05T20:57:57.457Z,101236.88
2023-03-05T21:00:24.473Z,101231.63
2023-03-05T21:02:51.695Z,101236.88
2023-03-05T21:05:20.044Z,101231.63
2023-03-05T21:07:46.631Z,101233.72
2023-03-05T21:10:14.068Z,101221.63
2023-03-05T21:12:40.502Z,101229.50
2023-03-05T21:15:07.424Z,101219.25
2023-03-05T21:17:33.811Z,101212.66
2023-03-05T21:20:01.895Z,101218.97
2023-03-05T21:22:28.340Z,101205.31
2023-03-05T21:25:15.701Z,101209.25
2023-03-05T21:27:43.044Z,101200.06
2023-03-05T21:30:10.909Z,101201.91
2023-03-05T21:32:37.570Z,101204.00
2023-03-05T21:35:04.254Z,101192.94
2023-03-05T21:37:30.569Z,101193.22
2023-03-05T21:39:56.907Z,101187.16
2023-03-05T21:42:23.275Z,101186.91
2023-03-05T21:44:49.646Z,101192.16
2023-03-05T21:47:16.026Z,101183.22
2023-03-05T21:49:42.339Z,101189.25
2023-03-05T21:52:14.023Z,101184.81
2023-03-05T21:54:42.016Z,101180.06
2023-03-05T21:57:11.291Z,101175.31
2023-03-05T21:59:41.567Z,101174.03
2023-03-05T22:02:16.410Z,101177.16
2023-03-05T22:04:43.469Z,101171.66
2023-03-05T22:07:09.859Z,101172.94
2023-03-05T22:09:36.248Z,101174.00
2023-03-05T22:12:04.595Z,101161.41
2023-03-05T22:14:30.918Z,101157.44
2023-03-05T22:17:02.043Z,101157.97
2023-03-05T22:19:32.361Z,101154.81
2023-03-05T22:21:59.154Z,101158.50
2023-03-05T22:24:25.454Z,101154.56
2023-03-05T22:26:51.844Z,101140.63
2023-03-05T22:29:18.207Z,101144.31
2023-03-05T22:31:44.901Z,101142.69
2023-03-05T22:34:11.491Z,101131.66
2023-03-05T22:36:37.798Z,101131.66
2023-03-05T22:39:04.593Z,101128.22
2023-03-05T22:41:31.083Z,101115.63
2023-03-05T22:43:57.396Z,101113.78
2023-03-05T22:46:25.979Z,101110.63
2023-03-05T22:48:55.979Z,101106.66
2023-03-05T22:51:22.560Z,101106.94
2023-03-05T22:53:48.913Z,101115.31
2023-03-05T22:56:19.001Z,101111.66
2023-03-05T22:58:45.663Z,101103.50
2023-03-05T23:01:24.451Z,101108.19
2023-03-05T23:03:55.312Z,101107.13
2023-03-05T23:06:21.671Z,101101.59
2023-03-05T23:08:48.036Z,101095.03
2023-03-05T23:11:14.422Z,101103.41
2023-03-05T23:13:41.224Z,101101.81
2023-03-05T23:16:09.330Z,101104.69
2023-03-05T23:18:35.639Z,101093.13
2023-03-05T23:21:01.981Z,101093.38
2023-03-05T23:23:28.360Z,101087.84
2023-03-05T23:25:54.662Z,101083.06
2023-03-05T23:28:20.996Z,101081.97
2023-03-05T23:30:47.380Z,101080.94
2023-03-05T23:33:19.651Z,101079.06
2023-03-05T23:35:55.925Z,101072.25
2023-03-05T23:38:23.376Z,101069.88
2023-03-05T23:40:53.772Z,101064.59
2023-03-05T23:43:21.745Z,101061.44
2023-03-05T23:45:49.474Z,101066.16
2023-03-05T23:48:17.444Z,101065.09
2023-03-05T23:50:47.384Z,101062.16
2023-03-05T23:53:22.391Z,101061.66
2023-03-05T23:55:49.346Z,101067.38
2023-03-05T23:58:16.718Z,101069.22
